sensor_id;sensor_type;location;lat;lon;timestamp;P1;durP1;ratioP1;P2;durP2;ratioP2
4915;SDS011;70796;52.406;13.230;2024-02-21T00:01:15;20.30;;;5.90;;
4915;SDS011;70796;52.406;13.230;2024-02-21T00:03:43;26.20;;;6.50;;
4915;SDS011;70796;52.406;13.230;2024-02-21T00:06:09;27.03;;;6.50;;
4915;SDS011;70796;52.406;13.230;2024-02-21T00:08:35;20.63;;;5.90;;
4915;SDS011;70796;52.406;13.230;2024-02-21T00:11:02;21.87;;;7.10;;
4915;SDS011;70796;52.406;13.230;2024-02-21T00:13:29;32.23;;;5.87;;
4915;SDS011;70796;52.406;13.230;2024-02-21T00:15:56;21.77;;;5.70;;
4915;SDS011;70796;52.406;13.230;2024-02-21T00:18:22;24.43;;;6.33;;
4915;SDS011;70796;52.406;13.230;2024-02-21T00:20:55;17.43;;;5.70;;
4915;SDS011;70796;52.406;13.230;2024-02-21T00:23:21;16.27;;;5.30;;
4915;SDS011;70796;52.406;13.230;2024-02-21T00:25:48;23.17;;;6.47;;
4915;SDS011;70796;52.406;13.230;2024-02-21T00:28:14;13.00;;;5.20;;
4915;SDS011;70796;52.406;13.230;2024-02-21T00:30:41;37.93;;;5.97;;
4915;SDS011;70796;52.406;13.230;2024-02-21T00:33:07;20.50;;;6.20;;
4915;SDS011;70796;52.406;13.230;2024-02-21T00:35:34;20.07;;;5.27;;
4915;SDS011;70796;52.406;13.230;2024-02-21T00:38:00;15.83;;;4.60;;
4915;SDS011;70796;52.406;13.230;2024-02-21T00:40:27;18.70;;;5.30;;
4915;SDS011;70796;52.406;13.230;2024-02-21T00:42:53;19.80;;;5.30;;
4915;SDS011;70796;52.406;13.230;2024-02-21T00:45:20;14.53;;;4.73;;
4915;SDS011;70796;52.406;13.230;2024-02-21T00:47:46;27.60;;;5.77;;
4915;SDS011;70796;52.406;13.230;2024-02-21T00:50:13;17.53;;;5.63;;
4915;SDS011;70796;52.406;13.230;2024-02-21T00:52:39;24.97;;;6.23;;
4915;SDS011;70796;52.406;13.230;2024-02-21T00:55:06;34.93;;;5.60;;
4915;SDS011;70796;52.406;13.230;2024-02-21T00:57:32;18.80;;;5.50;;
4915;SDS011;70796;52.406;13.230;2024-02-21T00:59:59;16.60;;;5.03;;
4915;SDS011;70796;52.406;13.230;2024-02-21T01:02:25;23.53;;;5.47;;
4915;SDS011;70796;52.406;13.230;2024-02-21T01:04:52;18.83;;;5.20;;
4915;SDS011;70796;52.406;13.230;2024-02-21T01:07:19;17.37;;;4.80;;
4915;SDS011;70796;52.406;13.230;2024-02-21T01:09:46;23.53;;;4.87;;
4915;SDS011;70796;52.406;13.230;2024-02-21T01:12:12;19.73;;;4.87;;
4915;SDS011;70796;52.406;13.230;2024-02-21T01:14:39;17.00;;;5.00;;
4915;SDS011;70796;52.406;13.230;2024-02-21T01:17:06;12.20;;;5.67;;
4915;SDS011;70796;52.406;13.230;2024-02-21T01:19:33;20.33;;;5.40;;
4915;SDS011;70796;52.406;13.230;2024-02-21T01:21:59;15.30;;;5.57;;
4915;SDS011;70796;52.406;13.230;2024-02-21T01:24:26;21.83;;;4.83;;
4915;SDS011;70796;52.406;13.230;2024-02-21T01:26:52;23.77;;;5.63;;
4915;SDS011;70796;52.406;13.230;2024-02-21T01:29:19;27.20;;;6.60;;
4915;SDS011;70796;52.406;13.230;2024-02-21T01:31:45;13.40;;;5.13;;
4915;SDS011;70796;52.406;13.230;2024-02-21T01:34:11;22.37;;;5.17;;
4915;SDS011;70796;52.406;13.230;2024-02-21T01:36:38;21.50;;;4.90;;
4915;SDS011;70796;52.406;13.230;2024-02-21T01:39:05;24.10;;;5.13;;
4915;SDS011;70796;52.406;13.230;2024-02-21T01:41:31;17.07;;;5.33;;
4915;SDS011;70796;52.406;13.230;2024-02-21T01:43:58;20.50;;;5.30;;
4915;SDS011;70796;52.406;13.230;2024-02-21T01:46:24;18.97;;;5.83;;
4915;SDS011;70796;52.406;13.230;2024-02-21T01:48:55;22.60;;;5.00;;
4915;SDS011;70796;52.406;13.230;2024-02-21T01:51:23;27.40;;;5.03;;
4915;SDS011;70796;52.406;13.230;2024-02-21T01:53:50;20.10;;;5.30;;
4915;SDS011;70796;52.406;13.230;2024-02-21T01:56:17;12.93;;;4.97;;
4915;SDS011;70796;52.406;13.230;2024-02-21T01:58:43;16.27;;;5.20;;
4915;SDS011;70796;52.406;13.230;2024-02-21T02:01:10;19.63;;;5.20;;
4915;SDS011;70796;52.406;13.230;2024-02-21T02:03:37;17.23;;;5.57;;
4915;SDS011;70796;52.406;13.230;2024-02-21T02:06:04;19.90;;;5.60;;
4915;SDS011;70796;52.406;13.230;2024-02-21T02:08:31;23.10;;;5.60;;
4915;SDS011;70796;52.406;13.230;2024-02-21T02:10:57;21.00;;;5.10;;
4915;SDS011;70796;52.406;13.230;2024-02-21T02:13:25;24.23;;;4.90;;
4915;SDS011;70796;52.406;13.230;2024-02-21T02:15:51;23.80;;;5.40;;
4915;SDS011;70796;52.406;13.230;2024-02-21T02:18:19;21.70;;;5.30;;
4915;SDS011;70796;52.406;13.230;2024-02-21T02:20:46;19.40;;;4.73;;
4915;SDS011;70796;52.406;13.230;2024-02-21T02:23:19;20.53;;;5.07;;
4915;SDS011;70796;52.406;13.230;2024-02-21T02:25:46;16.57;;;5.63;;
4915;SDS011;70796;52.406;13.230;2024-02-21T02:28:16;24.57;;;5.73;;
4915;SDS011;70796;52.406;13.230;2024-02-21T02:30:42;17.53;;;5.27;;
4915;SDS011;70796;52.406;13.230;2024-02-21T02:33:09;21.07;;;4.80;;
4915;SDS011;70796;52.406;13.230;2024-02-21T02:35:36;22.33;;;5.60;;
4915;SDS011;70796;52.406;13.230;2024-02-21T02:38:03;28.93;;;6.33;;
4915;SDS011;70796;52.406;13.230;2024-02-21T02:40:30;20.67;;;5.20;;
4915;SDS011;70796;52.406;13.230;2024-02-21T02:42:56;26.37;;;7.97;;
4915;SDS011;70796;52.406;13.230;2024-02-21T02:45:23;16.10;;;5.90;;
4915;SDS011;70796;52.406;13.230;2024-02-21T02:47:52;19.20;;;5.83;;
4915;SDS011;70796;52.406;13.230;2024-02-21T02:50:21;20.80;;;5.07;;
4915;SDS011;70796;52.406;13.230;2024-02-21T02:52:47;20.90;;;5.67;;
4915;SDS011;70796;52.406;13.230;2024-02-21T02:55:14;20.00;;;5.23;;
4915;SDS011;70796;52.406;13.230;2024-02-21T02:57:41;25.37;;;6.30;;
4915;SDS011;70796;52.406;13.230;2024-02-21T03:00:08;16.50;;;5.80;;
4915;SDS011;70796;52.406;13.230;2024-02-21T03:02:35;27.80;;;6.40;;
4915;SDS011;70796;52.406;13.230;2024-02-21T03:05:02;21.03;;;6.40;;
4915;SDS011;70796;52.406;13.230;2024-02-21T03:07:37;22.10;;;6.90;;
4915;SDS011;70796;52.406;13.230;2024-02-21T03:10:04;29.40;;;6.53;;
4915;SDS011;70796;52.406;13.230;2024-02-21T03:12:30;25.90;;;6.13;;
4915;SDS011;70796;52.406;13.230;2024-02-21T03:14:56;20.47;;;6.53;;
4915;SDS011;70796;52.406;13.230;2024-02-21T03:17:23;21.37;;;6.33;;
4915;SDS011;70796;52.406;13.230;2024-02-21T03:19:50;26.13;;;7.13;;
4915;SDS011;70796;52.406;13.230;2024-02-21T03:22:19;25.43;;;7.10;;
4915;SDS011;70796;52.406;13.230;2024-02-21T03:24:45;31.37;;;7.37;;
4915;SDS011;70796;52.406;13.230;2024-02-21T03:27:12;23.30;;;7.87;;
4915;SDS011;70796;52.406;13.230;2024-02-21T03:29:38;32.43;;;7.57;;
4915;SDS011;70796;52.406;13.230;2024-02-21T03:32:05;26.87;;;8.07;;
4915;SDS011;70796;52.406;13.230;2024-02-21T03:34:32;22.50;;;6.57;;
4915;SDS011;70796;52.406;13.230;2024-02-21T03:36:58;27.30;;;7.57;;
4915;SDS011;70796;52.406;13.230;2024-02-21T03:39:25;25.10;;;6.83;;
4915;SDS011;70796;52.406;13.230;2024-02-21T03:41:51;28.17;;;7.70;;
4915;SDS011;70796;52.406;13.230;2024-02-21T03:44:18;19.70;;;6.47;;
4915;SDS011;70796;52.406;13.230;2024-02-21T03:46:44;35.73;;;7.60;;
4915;SDS011;70796;52.406;13.230;2024-02-21T03:49:11;22.53;;;6.07;;
4915;SDS011;70796;52.406;13.230;2024-02-21T03:51:38;19.27;;;6.47;;
4915;SDS011;70796;52.406;13.230;2024-02-21T03:54:04;19.23;;;6.47;;
4915;SDS011;70796;52.406;13.230;2024-02-21T03:56:30;21.23;;;7.87;;
4915;SDS011;70796;52.406;13.230;2024-02-21T03:58:57;20.13;;;7.00;;
4915;SDS011;70796;52.406;13.230;2024-02-21T04:01:24;27.33;;;7.03;;
4915;SDS011;70796;52.406;13.230;2024-02-21T04:03:51;27.10;;;7.80;;
4915;SDS011;70796;52.406;13.230;2024-02-21T04:06:18;23.03;;;6.67;;
4915;SDS011;70796;52.406;13.230;2024-02-21T04:08:45;19.43;;;7.23;;
4915;SDS011;70796;52.406;13.230;2024-02-21T04:11:11;30.83;;;9.10;;
4915;SDS011;70796;52.406;13.230;2024-02-21T04:13:38;17.80;;;7.30;;
4915;SDS011;70796;52.406;13.230;2024-02-21T04:16:04;23.07;;;7.53;;
4915;SDS011;70796;52.406;13.230;2024-02-21T04:18:32;27.20;;;7.90;;
4915;SDS011;70796;52.406;13.230;2024-02-21T04:20:58;23.90;;;7.87;;
4915;SDS011;70796;52.406;13.230;2024-02-21T04:23:25;40.60;;;8.10;;
4915;SDS011;70796;52.406;13.230;2024-02-21T04:25:52;33.70;;;7.50;;
4915;SDS011;70796;52.406;13.230;2024-02-21T04:28:19;37.57;;;8.30;;
4915;SDS011;70796;52.406;13.230;2024-02-21T04:30:47;37.57;;;8.10;;
4915;SDS011;70796;52.406;13.230;2024-02-21T04:33:13;20.40;;;8.10;;
4915;SDS011;70796;52.406;13.230;2024-02-21T04:35:40;19.10;;;6.93;;
4915;SDS011;70796;52.406;13.230;2024-02-21T04:38:06;22.83;;;7.27;;
4915;SDS011;70796;52.406;13.230;2024-02-21T04:40:33;19.50;;;7.13;;
4915;SDS011;70796;52.406;13.230;2024-02-21T04:42:59;23.97;;;7.57;;
4915;SDS011;70796;52.406;13.230;2024-02-21T04:45:26;24.13;;;8.03;;
4915;SDS011;70796;52.406;13.230;2024-02-21T04:47:52;27.00;;;6.70;;
4915;SDS011;70796;52.406;13.230;2024-02-21T04:50:18;24.37;;;7.60;;
4915;SDS011;70796;52.406;13.230;2024-02-21T04:52:44;18.47;;;7.00;;
4915;SDS011;70796;52.406;13.230;2024-02-21T04:55:11;29.20;;;8.40;;
4915;SDS011;70796;52.406;13.230;2024-02-21T04:57:37;25.13;;;8.30;;
4915;SDS011;70796;52.406;13.230;2024-02-21T05:00:04;23.90;;;7.57;;
4915;SDS011;70796;52.406;13.230;2024-02-21T05:02:31;17.37;;;7.00;;
4915;SDS011;70796;52.406;13.230;2024-02-21T05:04:57;18.17;;;7.83;;
4915;SDS011;70796;52.406;13.230;2024-02-21T05:07:24;20.73;;;7.03;;
4915;SDS011;70796;52.406;13.230;2024-02-21T05:09:52;22.03;;;6.87;;
4915;SDS011;70796;52.406;13.230;2024-02-21T05:12:19;27.47;;;8.73;;
4915;SDS011;70796;52.406;13.230;2024-02-21T05:14:47;27.97;;;8.07;;
4915;SDS011;70796;52.406;13.230;2024-02-21T05:17:14;33.70;;;7.87;;
4915;SDS011;70796;52.406;13.230;2024-02-21T05:19:41;37.77;;;8.83;;
4915;SDS011;70796;52.406;13.230;2024-02-21T05:22:08;23.30;;;7.53;;
4915;SDS011;70796;52.406;13.230;2024-02-21T05:24:34;19.37;;;7.30;;
4915;SDS011;70796;52.406;13.230;2024-02-21T05:27:02;30.03;;;8.80;;
4915;SDS011;70796;52.406;13.230;2024-02-21T05:29:28;33.17;;;8.33;;
4915;SDS011;70796;52.406;13.230;2024-02-21T05:31:56;31.17;;;9.17;;
4915;SDS011;70796;52.406;13.230;2024-02-21T05:34:24;24.00;;;8.87;;
4915;SDS011;70796;52.406;13.230;2024-02-21T05:36:51;20.70;;;8.20;;
4915;SDS011;70796;52.406;13.230;2024-02-21T05:39:17;29.27;;;7.97;;
4915;SDS011;70796;52.406;13.230;2024-02-21T05:41:44;26.33;;;8.80;;
4915;SDS011;70796;52.406;13.230;2024-02-21T05:44:11;24.07;;;8.93;;
4915;SDS011;70796;52.406;13.230;2024-02-21T05:46:37;35.63;;;8.93;;
4915;SDS011;70796;52.406;13.230;2024-02-21T05:49:04;21.87;;;9.07;;
4915;SDS011;70796;52.406;13.230;2024-02-21T05:51:32;17.87;;;8.33;;
4915;SDS011;70796;52.406;13.230;2024-02-21T05:53:58;28.97;;;8.70;;
4915;SDS011;70796;52.406;13.230;2024-02-21T05:56:25;28.03;;;8.73;;
4915;SDS011;70796;52.406;13.230;2024-02-21T05:58:52;23.13;;;9.47;;
4915;SDS011;70796;52.406;13.230;2024-02-21T06:01:18;34.70;;;9.17;;
4915;SDS011;70796;52.406;13.230;2024-02-21T06:03:45;21.80;;;9.83;;
4915;SDS011;70796;52.406;13.230;2024-02-21T06:06:11;30.40;;;8.97;;
4915;SDS011;70796;52.406;13.230;2024-02-21T06:08:39;20.03;;;9.00;;
4915;SDS011;70796;52.406;13.230;2024-02-21T06:11:07;25.50;;;7.90;;
4915;SDS011;70796;52.406;13.230;2024-02-21T06:13:37;27.40;;;9.50;;
4915;SDS011;70796;52.406;13.230;2024-02-21T06:16:04;35.73;;;10.37;;
4915;SDS011;70796;52.406;13.230;2024-02-21T06:18:32;23.53;;;8.83;;
4915;SDS011;70796;52.406;13.230;2024-02-21T06:20:59;21.00;;;10.10;;
4915;SDS011;70796;52.406;13.230;2024-02-21T06:23:26;23.73;;;8.97;;
4915;SDS011;70796;52.406;13.230;2024-02-21T06:25:52;34.40;;;10.07;;
4915;SDS011;70796;52.406;13.230;2024-02-21T06:28:19;22.90;;;10.37;;
4915;SDS011;70796;52.406;13.230;2024-02-21T06:30:46;24.33;;;10.23;;
4915;SDS011;70796;52.406;13.230;2024-02-21T06:33:13;28.60;;;11.43;;
4915;SDS011;70796;52.406;13.230;2024-02-21T06:35:39;32.17;;;12.00;;
4915;SDS011;70796;52.406;13.230;2024-02-21T06:38:08;25.20;;;11.27;;
4915;SDS011;70796;52.406;13.230;2024-02-21T06:40:35;27.30;;;9.23;;
4915;SDS011;70796;52.406;13.230;2024-02-21T06:43:05;27.77;;;8.77;;
4915;SDS011;70796;52.406;13.230;2024-02-21T06:45:32;28.00;;;9.80;;
4915;SDS011;70796;52.406;13.230;2024-02-21T06:47:58;27.07;;;10.00;;
4915;SDS011;70796;52.406;13.230;2024-02-21T06:50:25;28.07;;;10.00;;
4915;SDS011;70796;52.406;13.230;2024-02-21T06:52:52;23.13;;;8.93;;
4915;SDS011;70796;52.406;13.230;2024-02-21T06:55:18;20.00;;;9.30;;
4915;SDS011;70796;52.406;13.230;2024-02-21T06:57:45;21.40;;;9.47;;
4915;SDS011;70796;52.406;13.230;2024-02-21T07:00:11;29.73;;;10.33;;
4915;SDS011;70796;52.406;13.230;2024-02-21T07:02:38;30.53;;;9.53;;
4915;SDS011;70796;52.406;13.230;2024-02-21T07:05:05;24.63;;;9.70;;
4915;SDS011;70796;52.406;13.230;2024-02-21T07:07:34;26.93;;;9.40;;
4915;SDS011;70796;52.406;13.230;2024-02-21T07:10:01;27.10;;;9.07;;
4915;SDS011;70796;52.406;13.230;2024-02-21T07:12:28;18.90;;;8.37;;
4915;SDS011;70796;52.406;13.230;2024-02-21T07:14:55;26.17;;;9.33;;
4915;SDS011;70796;52.406;13.230;2024-02-21T07:17:22;19.27;;;9.07;;
4915;SDS011;70796;52.406;13.230;2024-02-21T07:19:48;17.37;;;8.20;;
4915;SDS011;70796;52.406;13.230;2024-02-21T07:22:15;24.70;;;8.20;;
4915;SDS011;70796;52.406;13.230;2024-02-21T07:24:42;25.67;;;8.80;;
4915;SDS011;70796;52.406;13.230;2024-02-21T07:27:08;20.80;;;8.20;;
4915;SDS011;70796;52.406;13.230;2024-02-21T07:29:34;23.37;;;7.90;;
4915;SDS011;70796;52.406;13.230;2024-02-21T07:32:02;23.47;;;8.93;;
4915;SDS011;70796;52.406;13.230;2024-02-21T07:34:28;24.67;;;8.30;;
4915;SDS011;70796;52.406;13.230;2024-02-21T07:36:55;23.63;;;7.63;;
4915;SDS011;70796;52.406;13.230;2024-02-21T07:39:24;18.83;;;7.93;;
4915;SDS011;70796;52.406;13.230;2024-02-21T07:41:51;22.00;;;8.50;;
4915;SDS011;70796;52.406;13.230;2024-02-21T07:44:17;18.47;;;7.73;;
4915;SDS011;70796;52.406;13.230;2024-02-21T07:46:44;23.63;;;7.53;;
4915;SDS011;70796;52.406;13.230;2024-02-21T07:49:11;19.23;;;7.13;;
4915;SDS011;70796;52.406;13.230;2024-02-21T07:51:38;14.30;;;6.93;;
4915;SDS011;70796;52.406;13.230;2024-02-21T07:54:05;15.73;;;6.80;;
4915;SDS011;70796;52.406;13.230;2024-02-21T07:56:31;25.63;;;8.57;;
4915;SDS011;70796;52.406;13.230;2024-02-21T07:58:57;18.30;;;7.43;;
4915;SDS011;70796;52.406;13.230;2024-02-21T08:01:25;25.23;;;8.10;;
4915;SDS011;70796;52.406;13.230;2024-02-21T08:03:55;23.67;;;7.60;;
4915;SDS011;70796;52.406;13.230;2024-02-21T08:06:25;15.00;;;7.60;;
4915;SDS011;70796;52.406;13.230;2024-02-21T08:08:53;16.17;;;7.27;;
4915;SDS011;70796;52.406;13.230;2024-02-21T08:11:21;21.40;;;7.90;;
4915;SDS011;70796;52.406;13.230;2024-02-21T08:13:50;22.30;;;8.27;;
4915;SDS011;70796;52.406;13.230;2024-02-21T08:16:19;22.03;;;7.60;;
4915;SDS011;70796;52.406;13.230;2024-02-21T08:18:47;19.37;;;8.47;;
4915;SDS011;70796;52.406;13.230;2024-02-21T08:21:20;25.83;;;8.80;;
4915;SDS011;70796;52.406;13.230;2024-02-21T08:23:48;30.17;;;8.27;;
4915;SDS011;70796;52.406;13.230;2024-02-21T08:26:24;25.40;;;7.70;;
4915;SDS011;70796;52.406;13.230;2024-02-21T08:28:54;24.20;;;9.07;;
4915;SDS011;70796;52.406;13.230;2024-02-21T08:31:21;20.43;;;8.40;;
4915;SDS011;70796;52.406;13.230;2024-02-21T08:33:49;28.50;;;8.37;;
4915;SDS011;70796;52.406;13.230;2024-02-21T08:36:17;15.77;;;7.50;;
4915;SDS011;70796;52.406;13.230;2024-02-21T08:38:45;21.60;;;8.90;;
4915;SDS011;70796;52.406;13.230;2024-02-21T08:41:11;25.27;;;8.50;;
4915;SDS011;70796;52.406;13.230;2024-02-21T08:43:39;20.13;;;7.60;;
4915;SDS011;70796;52.406;13.230;2024-02-21T08:46:05;22.80;;;7.93;;
4915;SDS011;70796;52.406;13.230;2024-02-21T08:48:32;23.00;;;8.67;;
4915;SDS011;70796;52.406;13.230;2024-02-21T08:50:59;20.23;;;8.90;;
4915;SDS011;70796;52.406;13.230;2024-02-21T08:53:26;23.40;;;8.37;;
4915;SDS011;70796;52.406;13.230;2024-02-21T08:55:52;25.77;;;8.43;;
4915;SDS011;70796;52.406;13.230;2024-02-21T08:58:19;12.60;;;7.03;;
4915;SDS011;70796;52.406;13.230;2024-02-21T09:00:48;18.47;;;8.07;;
4915;SDS011;70796;52.406;13.230;2024-02-21T09:03:15;21.43;;;8.20;;
4915;SDS011;70796;52.406;13.230;2024-02-21T09:05:42;18.67;;;8.80;;
4915;SDS011;70796;52.406;13.230;2024-02-21T09:08:09;19.17;;;8.50;;
4915;SDS011;70796;52.406;13.230;2024-02-21T09:10:35;25.43;;;8.20;;
4915;SDS011;70796;52.406;13.230;2024-02-21T09:13:03;20.93;;;8.20;;
4915;SDS011;70796;52.406;13.230;2024-02-21T09:15:31;15.53;;;8.43;;
4915;SDS011;70796;52.406;13.230;2024-02-21T09:18:00;28.17;;;9.30;;
4915;SDS011;70796;52.406;13.230;2024-02-21T09:20:26;24.70;;;8.57;;
4915;SDS011;70796;52.406;13.230;2024-02-21T09:22:53;18.20;;;8.47;;
4915;SDS011;70796;52.406;13.230;2024-02-21T09:25:19;19.60;;;9.53;;
4915;SDS011;70796;52.406;13.230;2024-02-21T09:27:46;21.03;;;8.83;;
4915;SDS011;70796;52.406;13.230;2024-02-21T09:30:12;16.57;;;9.07;;
4915;SDS011;70796;52.406;13.230;2024-02-21T09:32:40;26.73;;;9.23;;
4915;SDS011;70796;52.406;13.230;2024-02-21T09:35:06;27.07;;;9.53;;
4915;SDS011;70796;52.406;13.230;2024-02-21T09:37:33;16.67;;;9.20;;
4915;SDS011;70796;52.406;13.230;2024-02-21T09:40:01;20.90;;;8.50;;
4915;SDS011;70796;52.406;13.230;2024-02-21T09:42:40;20.00;;;8.57;;
4915;SDS011;70796;52.406;13.230;2024-02-21T09:45:08;20.80;;;8.47;;
4915;SDS011;70796;52.406;13.230;2024-02-21T09:47:40;17.87;;;8.27;;
4915;SDS011;70796;52.406;13.230;2024-02-21T09:50:08;17.07;;;8.33;;
4915;SDS011;70796;52.406;13.230;2024-02-21T09:52:34;17.77;;;7.70;;
4915;SDS011;70796;52.406;13.230;2024-02-21T09:55:01;15.60;;;7.87;;
4915;SDS011;70796;52.406;13.230;2024-02-21T09:57:28;19.90;;;8.50;;
4915;SDS011;70796;52.406;13.230;2024-02-21T09:59:55;17.63;;;9.30;;
4915;SDS011;70796;52.406;13.230;2024-02-21T10:02:23;19.47;;;7.70;;
4915;SDS011;70796;52.406;13.230;2024-02-21T10:04:50;13.37;;;6.90;;
4915;SDS011;70796;52.406;13.230;2024-02-21T10:07:17;15.70;;;7.80;;
4915;SDS011;70796;52.406;13.230;2024-02-21T10:09:59;15.97;;;8.03;;
4915;SDS011;70796;52.406;13.230;2024-02-21T10:12:29;17.23;;;8.40;;
4915;SDS011;70796;52.406;13.230;2024-02-21T10:15:05;15.00;;;7.07;;
4915;SDS011;70796;52.406;13.230;2024-02-21T10:17:32;18.00;;;7.63;;
4915;SDS011;70796;52.406;13.230;2024-02-21T10:20:09;16.13;;;7.70;;
4915;SDS011;70796;52.406;13.230;2024-02-21T10:25:30;8.60;;;6.10;;
4915;SDS011;70796;52.406;13.230;2024-02-21T10:27:57;15.80;;;8.27;;
4915;SDS011;70796;52.406;13.230;2024-02-21T10:30:24;13.53;;;7.60;;
4915;SDS011;70796;52.406;13.230;2024-02-21T10:32:54;13.10;;;6.77;;
4915;SDS011;70796;52.406;13.230;2024-02-21T10:35:40;18.07;;;6.80;;
4915;SDS011;70796;52.406;13.230;2024-02-21T10:38:06;22.00;;;7.70;;
4915;SDS011;70796;52.406;13.230;2024-02-21T10:40:34;15.77;;;7.60;;
4915;SDS011;70796;52.406;13.230;2024-02-21T10:43:02;15.00;;;8.70;;
4915;SDS011;70796;52.406;13.230;2024-02-21T10:45:34;17.90;;;8.30;;
4915;SDS011;70796;52.406;13.230;2024-02-21T10:48:06;17.30;;;9.07;;
4915;SDS011;70796;52.406;13.230;2024-02-21T10:50:36;17.50;;;8.23;;
4915;SDS011;70796;52.406;13.230;2024-02-21T10:53:44;17.07;;;7.80;;
4915;SDS011;70796;52.406;13.230;2024-02-21T10:56:46;14.43;;;7.60;;
4915;SDS011;70796;52.406;13.230;2024-02-21T10:58:53;13.70;;;7.87;;
4915;SDS011;70796;52.406;13.230;2024-02-21T11:01:22;18.83;;;8.07;;
4915;SDS011;70796;52.406;13.230;2024-02-21T11:03:49;19.70;;;7.47;;
4915;SDS011;70796;52.406;13.230;2024-02-21T11:06:17;20.40;;;8.37;;
4915;SDS011;70796;52.406;13.230;2024-02-21T11:08:44;17.60;;;6.87;;
4915;SDS011;70796;52.406;13.230;2024-02-21T11:11:12;16.63;;;7.70;;
4915;SDS011;70796;52.406;13.230;2024-02-21T11:16:38;16.13;;;8.07;;
4915;SDS011;70796;52.406;13.230;2024-02-21T11:21:50;19.80;;;7.20;;
4915;SDS011;70796;52.406;13.230;2024-02-21T11:24:26;12.37;;;7.13;;
4915;SDS011;70796;52.406;13.230;2024-02-21T11:26:56;8.50;;;5.73;;
4915;SDS011;70796;52.406;13.230;2024-02-21T11:29:23;16.50;;;6.13;;
4915;SDS011;70796;52.406;13.230;2024-02-21T11:31:56;17.07;;;6.77;;
4915;SDS011;70796;52.406;13.230;2024-02-21T11:34:22;11.00;;;5.50;;
4915;SDS011;70796;52.406;13.230;2024-02-21T11:36:52;14.60;;;6.23;;
4915;SDS011;70796;52.406;13.230;2024-02-21T11:39:22;10.70;;;6.00;;
4915;SDS011;70796;52.406;13.230;2024-02-21T11:44:47;10.00;;;6.37;;
4915;SDS011;70796;52.406;13.230;2024-02-21T11:47:14;14.03;;;6.60;;
4915;SDS011;70796;52.406;13.230;2024-02-21T11:49:45;12.40;;;6.00;;
4915;SDS011;70796;52.406;13.230;2024-02-21T11:52:14;13.40;;;5.97;;
4915;SDS011;70796;52.406;13.230;2024-02-21T11:54:42;8.37;;;5.03;;
4915;SDS011;70796;52.406;13.230;2024-02-21T11:57:10;11.77;;;5.13;;
4915;SDS011;70796;52.406;13.230;2024-02-21T11:59:40;15.40;;;5.07;;
4915;SDS011;70796;52.406;13.230;2024-02-21T12:02:07;8.50;;;4.80;;
4915;SDS011;70796;52.406;13.230;2024-02-21T12:04:35;9.97;;;5.13;;
4915;SDS011;70796;52.406;13.230;2024-02-21T12:07:02;11.77;;;4.63;;
4915;SDS011;70796;52.406;13.230;2024-02-21T12:09:33;9.27;;;4.40;;
4915;SDS011;70796;52.406;13.230;2024-02-21T12:12:01;8.40;;;4.70;;
4915;SDS011;70796;52.406;13.230;2024-02-21T12:14:33;11.10;;;4.53;;
4915;SDS011;70796;52.406;13.230;2024-02-21T12:17:01;4.47;;;3.37;;
4915;SDS011;70796;52.406;13.230;2024-02-21T12:19:31;7.07;;;4.03;;
4915;SDS011;70796;52.406;13.230;2024-02-21T12:21:59;21.90;;;5.50;;
4915;SDS011;70796;52.406;13.230;2024-02-21T12:24:27;8.87;;;4.20;;
4915;SDS011;70796;52.406;13.230;2024-02-21T12:26:54;7.60;;;3.90;;
4915;SDS011;70796;52.406;13.230;2024-02-21T12:29:22;7.13;;;4.10;;
4915;SDS011;70796;52.406;13.230;2024-02-21T12:31:51;9.67;;;4.17;;
4915;SDS011;70796;52.406;13.230;2024-02-21T12:34:18;11.53;;;4.77;;
4915;SDS011;70796;52.406;13.230;2024-02-21T12:36:59;11.30;;;3.77;;
4915;SDS011;70796;52.406;13.230;2024-02-21T12:39:26;5.33;;;3.80;;
4915;SDS011;70796;52.406;13.230;2024-02-21T12:41:55;11.97;;;4.40;;
4915;SDS011;70796;52.406;13.230;2024-02-21T12:44:23;12.90;;;4.30;;
4915;SDS011;70796;52.406;13.230;2024-02-21T12:46:50;11.27;;;4.80;;
4915;SDS011;70796;52.406;13.230;2024-02-21T12:49:20;11.67;;;4.70;;
4915;SDS011;70796;52.406;13.230;2024-02-21T12:51:46;8.70;;;4.17;;
4915;SDS011;70796;52.406;13.230;2024-02-21T12:54:14;12.30;;;4.43;;
4915;SDS011;70796;52.406;13.230;2024-02-21T12:56:40;7.10;;;4.40;;
4915;SDS011;70796;52.406;13.230;2024-02-21T12:59:06;11.10;;;3.83;;
4915;SDS011;70796;52.406;13.230;2024-02-21T13:01:36;10.50;;;4.67;;
4915;SDS011;70796;52.406;13.230;2024-02-21T13:04:02;11.80;;;5.40;;
4915;SDS011;70796;52.406;13.230;2024-02-21T13:06:30;15.27;;;4.47;;
4915;SDS011;70796;52.406;13.230;2024-02-21T13:08:56;9.97;;;4.10;;
4915;SDS011;70796;52.406;13.230;2024-02-21T13:11:22;10.50;;;4.57;;
4915;SDS011;70796;52.406;13.230;2024-02-21T13:13:53;9.33;;;4.50;;
4915;SDS011;70796;52.406;13.230;2024-02-21T13:16:20;10.60;;;5.93;;
4915;SDS011;70796;52.406;13.230;2024-02-21T13:18:46;12.23;;;4.50;;
4915;SDS011;70796;52.406;13.230;2024-02-21T13:21:15;9.77;;;4.50;;
4915;SDS011;70796;52.406;13.230;2024-02-21T13:23:43;12.73;;;4.50;;
4915;SDS011;70796;52.406;13.230;2024-02-21T13:26:11;11.90;;;5.03;;
4915;SDS011;70796;52.406;13.230;2024-02-21T13:28:40;7.13;;;3.93;;
4915;SDS011;70796;52.406;13.230;2024-02-21T13:31:08;12.70;;;3.80;;
4915;SDS011;70796;52.406;13.230;2024-02-21T13:33:35;6.13;;;3.50;;
4915;SDS011;70796;52.406;13.230;2024-02-21T13:36:03;15.10;;;4.63;;
4915;SDS011;70796;52.406;13.230;2024-02-21T13:38:30;5.77;;;3.23;;
4915;SDS011;70796;52.406;13.230;2024-02-21T13:40:56;6.20;;;3.50;;
4915;SDS011;70796;52.406;13.230;2024-02-21T13:43:23;6.97;;;3.53;;
4915;SDS011;70796;52.406;13.230;2024-02-21T13:46:00;18.80;;;3.70;;
4915;SDS011;70796;52.406;13.230;2024-02-21T13:48:29;7.13;;;3.60;;
4915;SDS011;70796;52.406;13.230;2024-02-21T13:50:56;11.90;;;3.83;;
4915;SDS011;70796;52.406;13.230;2024-02-21T13:53:23;7.43;;;3.87;;
4915;SDS011;70796;52.406;13.230;2024-02-21T13:55:50;9.93;;;3.73;;
4915;SDS011;70796;52.406;13.230;2024-02-21T13:58:17;13.03;;;4.00;;
4915;SDS011;70796;52.406;13.230;2024-02-21T14:00:43;8.17;;;3.60;;
4915;SDS011;70796;52.406;13.230;2024-02-21T14:03:10;11.93;;;4.30;;
4915;SDS011;70796;52.406;13.230;2024-02-21T14:05:37;8.23;;;3.93;;
4915;SDS011;70796;52.406;13.230;2024-02-21T14:08:08;12.90;;;3.77;;
4915;SDS011;70796;52.406;13.230;2024-02-21T14:10:35;16.03;;;4.40;;
4915;SDS011;70796;52.406;13.230;2024-02-21T14:13:04;8.57;;;3.97;;
4915;SDS011;70796;52.406;13.230;2024-02-21T14:15:30;14.00;;;4.20;;
4915;SDS011;70796;52.406;13.230;2024-02-21T14:17:58;8.70;;;3.87;;
4915;SDS011;70796;52.406;13.230;2024-02-21T14:20:25;6.90;;;4.10;;
4915;SDS011;70796;52.406;13.230;2024-02-21T14:22:52;11.57;;;4.10;;
4915;SDS011;70796;52.406;13.230;2024-02-21T14:25:18;7.53;;;4.23;;
4915;SDS011;70796;52.406;13.230;2024-02-21T14:27:45;7.20;;;4.00;;
4915;SDS011;70796;52.406;13.230;2024-02-21T14:30:12;7.60;;;4.03;;
4915;SDS011;70796;52.406;13.230;2024-02-21T14:32:40;6.63;;;3.80;;
4915;SDS011;70796;52.406;13.230;2024-02-21T14:35:07;7.50;;;4.00;;
4915;SDS011;70796;52.406;13.230;2024-02-21T14:37:35;9.03;;;3.90;;
4915;SDS011;70796;52.406;13.230;2024-02-21T14:40:02;8.73;;;4.27;;
4915;SDS011;70796;52.406;13.230;2024-02-21T14:42:29;8.33;;;3.90;;
4915;SDS011;70796;52.406;13.230;2024-02-21T14:44:55;6.03;;;3.20;;
4915;SDS011;70796;52.406;13.230;2024-02-21T14:47:31;11.93;;;4.43;;
4915;SDS011;70796;52.406;13.230;2024-02-21T14:49:58;8.13;;;3.57;;